createdAt,value
2022-12-25T00:01:59.712Z,100.00
2022-12-25T00:04:28.705Z,100.00
2022-12-25T00:06:57.573Z,100.00
2022-12-25T00:09:26.434Z,100.00
2022-12-25T00:11:56.667Z,100.00
2022-12-25T00:14:25.496Z,100.00
2022-12-25T00:16:54.366Z,100.00
2022-12-25T00:19:23.156Z,100.00
2022-12-25T00:21:51.987Z,100.00
2022-12-25T00:24:21.368Z,100.00
2022-12-25T00:26:50.195Z,100.00
2022-12-25T00:29:20.451Z,100.00
2022-12-25T00:31:49.288Z,100.00
2022-12-25T00:34:18.205Z,100.00
2022-12-25T00:36:47.006Z,100.00
2022-12-25T00:39:15.780Z,100.00
2022-12-25T00:42:02.250Z,100.00
2022-12-25T00:44:32.637Z,100.00
2022-12-25T00:47:01.529Z,100.00
2022-12-25T00:49:30.386Z,100.00
2022-12-25T00:51:59.265Z,100.00
2022-12-25T00:54:28.206Z,100.00
2022-12-25T00:56:57.061Z,100.00
2022-12-25T00:59:25.935Z,100.00
2022-12-25T01:01:56.203Z,100.00
2022-12-25T01:04:25.012Z,100.00
2022-12-25T01:06:53.848Z,100.00
2022-12-25T01:09:40.079Z,100.00
2022-12-25T01:12:09.037Z,100.00
2022-12-25T01:14:37.943Z,100.00
2022-12-25T01:17:08.169Z,100.00
2022-12-25T01:19:36.967Z,100.00
2022-12-25T01:22:05.848Z,100.00
2022-12-25T01:24:34.680Z,100.00
2022-12-25T01:27:04.151Z,100.00
2022-12-25T01:29:32.993Z,100.00
2022-12-25T01:32:02.053Z,100.00
2022-12-25T01:34:33.498Z,100.00
2022-12-25T01:37:03.664Z,100.00
2022-12-25T01:39:32.873Z,100.00
2022-12-25T01:42:02.367Z,100.00
2022-12-25T01:45:24.262Z,100.00
2022-12-25T01:47:53.152Z,100.00
2022-12-25T01:50:24.075Z,100.00
2022-12-25T01:52:53.622Z,100.00
2022-12-25T01:55:23.797Z,100.00
2022-12-25T01:57:53.285Z,100.00
2022-12-25T02:00:22.505Z,100.00
2022-12-25T02:02:51.528Z,100.00
2022-12-25T02:05:26.107Z,100.00
2022-12-25T02:07:55.810Z,100.00
2022-12-25T02:10:24.816Z,100.00
2022-12-25T02:12:54.480Z,100.00
2022-12-25T02:15:28.203Z,100.00
2022-12-25T02:18:03.693Z,100.00
2022-12-25T02:21:00.202Z,100.00
2022-12-25T02:24:11.076Z,100.00
2022-12-25T02:27:04.528Z,100.00
2022-12-25T02:29:43.930Z,100.00
2022-12-25T02:32:20.722Z,100.00
2022-12-25T02:34:54.377Z,100.00
2022-12-25T02:37:29.306Z,100.00
2022-12-25T02:40:02.813Z,100.00
2022-12-25T02:43:02.845Z,100.00
2022-12-25T02:45:54.745Z,100.00
2022-12-25T02:48:44.724Z,100.00
2022-12-25T02:51:48.879Z,100.00
2022-12-25T02:54:38.342Z,100.00
2022-12-25T02:57:30.455Z,100.00
2022-12-25T03:00:18.769Z,100.00
2022-12-25T03:03:08.293Z,100.00
2022-12-25T03:05:58.652Z,100.00
2022-12-25T03:08:30.706Z,100.00
2022-12-25T03:11:22.104Z,100.00
2022-12-25T03:13:55.049Z,100.00
2022-12-25T03:16:41.899Z,100.00
2022-12-25T03:19:26.016Z,100.00
2022-12-25T03:22:14.522Z,100.00
2022-12-25T03:25:02.043Z,100.00
2022-12-25T03:27:34.607Z,100.00
2022-12-25T03:30:23.017Z,100.00
2022-12-25T03:32:59.089Z,100.00
2022-12-25T03:35:44.345Z,100.00
2022-12-25T03:38:46.451Z,100.00
2022-12-25T03:41:50.599Z,100.00
2022-12-25T03:44:54.923Z,100.00
2022-12-25T03:47:53.091Z,100.00
2022-12-25T03:50:44.839Z,100.00
2022-12-25T03:53:42.715Z,100.00
2022-12-25T03:56:30.377Z,100.00
2022-12-25T03:59:23.098Z,100.00
2022-12-25T04:02:11.247Z,100.00
2022-12-25T04:04:54.024Z,100.00
2022-12-25T04:07:40.243Z,100.00
2022-12-25T04:10:29.001Z,100.00
2022-12-25T04:13:15.484Z,100.00
2022-12-25T04:16:02.559Z,100.00
2022-12-25T04:18:49.040Z,100.00
2022-12-25T04:21:35.534Z,100.00
2022-12-25T04:24:22.104Z,100.00
2022-12-25T04:27:09.843Z,100.00
2022-12-25T04:29:56.197Z,100.00
2022-12-25T04:32:42.940Z,100.00
2022-12-25T04:35:29.445Z,100.00
2022-12-25T04:37:58.588Z,100.00
2022-12-25T04:40:27.583Z,100.00
2022-12-25T04:42:57.812Z,100.00
2022-12-25T04:45:26.662Z,100.00
2022-12-25T04:47:55.525Z,100.00
2022-12-25T04:50:24.320Z,100.00
2022-12-25T04:52:53.199Z,100.00
2022-12-25T04:55:22.094Z,100.00
2022-12-25T04:57:50.853Z,100.00
2022-12-25T05:00:21.768Z,100.00
2022-12-25T05:02:50.775Z,100.00
2022-12-25T05:05:19.761Z,100.00
2022-12-25T05:07:48.587Z,100.00
2022-12-25T05:10:17.943Z,100.00
2022-12-25T05:12:46.845Z,100.00
2022-12-25T05:15:15.726Z,100.00
2022-12-25T05:17:45.908Z,100.00
2022-12-25T05:20:14.863Z,100.00
2022-12-25T05:22:43.781Z,100.00
2022-12-25T05:25:12.608Z,100.00
2022-12-25T05:27:41.459Z,100.00
2022-12-25T05:30:11.141Z,100.00
2022-12-25T05:32:39.964Z,100.00
2022-12-25T05:35:10.870Z,100.00
2022-12-25T05:37:39.750Z,100.00
2022-12-25T05:40:09.893Z,100.00
2022-12-25T05:42:38.734Z,100.00
2022-12-25T05:45:08.810Z,100.00
2022-12-25T05:47:37.648Z,100.00
2022-12-25T05:50:07.720Z,100.00
2022-12-25T05:52:37.989Z,100.00
2022-12-25T05:55:07.529Z,100.00
2022-12-25T05:57:36.388Z,100.00
2022-12-25T06:00:05.701Z,100.00
2022-12-25T06:02:41.445Z,100.00
2022-12-25T06:05:11.079Z,100.00
2022-12-25T06:07:41.457Z,100.00
2022-12-25T06:10:10.708Z,100.00
2022-12-25T06:12:39.877Z,100.00
2022-12-25T06:15:10.080Z,100.00
2022-12-25T06:17:39.383Z,100.00
2022-12-25T06:20:09.381Z,100.00
2022-12-25T06:22:38.258Z,100.00
2022-12-25T06:25:09.725Z,100.00
2022-12-25T06:27:38.686Z,100.00
2022-12-25T06:30:09.025Z,100.00
2022-12-25T06:32:38.067Z,100.00
2022-12-25T06:35:07.748Z,100.00
2022-12-25T06:37:36.650Z,100.00
2022-12-25T06:40:06.358Z,100.00
2022-12-25T06:42:36.974Z,100.00
2022-12-25T06:45:06.653Z,100.00
2022-12-25T06:47:35.548Z,100.00
2022-12-25T06:50:05.795Z,100.00
2022-12-25T06:52:34.847Z,100.00
2022-12-25T06:55:04.630Z,100.00
2022-12-25T06:57:34.051Z,100.00
2022-12-25T07:00:07.295Z,100.00
2022-12-25T07:02:38.582Z,100.00
2022-12-25T07:05:08.176Z,100.00
2022-12-25T07:07:36.999Z,100.00
2022-12-25T07:10:06.667Z,100.00
2022-12-25T07:12:35.688Z,100.00
2022-12-25T07:15:07.181Z,100.00
2022-12-25T07:17:36.853Z,100.00
2022-12-25T07:20:06.994Z,100.00
2022-12-25T07:22:36.722Z,100.00
2022-12-25T07:25:06.202Z,99.84
2022-12-25T07:27:35.348Z,100.00
2022-12-25T07:30:06.519Z,100.00
2022-12-25T07:32:35.376Z,100.00
2022-12-25T07:35:04.929Z,100.00
2022-12-25T07:37:33.797Z,100.00
2022-12-25T07:40:04.092Z,100.00
2022-12-25T07:42:32.912Z,100.00
2022-12-25T07:45:02.853Z,100.00
2022-12-25T07:47:33.247Z,100.00
2022-12-25T07:50:02.792Z,100.00
2022-12-25T07:52:32.769Z,100.00
2022-12-25T07:55:04.901Z,100.00
2022-12-25T07:57:35.944Z,100.00
2022-12-25T08:00:05.125Z,100.00
2022-12-25T08:02:42.814Z,100.00
2022-12-25T08:05:11.960Z,100.00
2022-12-25T08:07:40.825Z,100.00
2022-12-25T08:10:10.041Z,100.00
2022-12-25T08:12:38.871Z,100.00
2022-12-25T08:15:08.739Z,100.00
2022-12-25T08:17:37.606Z,100.00
2022-12-25T08:20:09.588Z,100.00
2022-12-25T08:22:38.446Z,100.00
2022-12-25T08:25:08.145Z,100.00
2022-12-25T08:27:37.462Z,100.00
2022-12-25T08:30:07.625Z,99.32
2022-12-25T08:32:36.550Z,98.45
2022-12-25T08:35:07.590Z,100.00
2022-12-25T08:37:36.471Z,100.00
2022-12-25T08:40:06.388Z,100.00
2022-12-25T08:42:35.215Z,98.55
2022-12-25T08:45:04.830Z,100.00
2022-12-25T08:47:33.741Z,100.00
2022-12-25T08:50:04.035Z,100.00
2022-12-25T08:52:34.439Z,95.28
2022-12-25T08:55:05.148Z,87.63
2022-12-25T08:57:33.917Z,81.72
2022-12-25T09:00:03.423Z,87.84
2022-12-25T09:02:33.104Z,93.62
2022-12-25T09:05:02.840Z,93.37
2022-12-25T09:07:31.788Z,93.41
2022-12-25T09:10:02.021Z,94.84
2022-12-25T09:12:30.893Z,97.32
2022-12-25T09:14:59.719Z,100.00
2022-12-25T09:17:28.981Z,100.00
2022-12-25T09:19:57.805Z,100.00
2022-12-25T09:22:26.738Z,100.00
2022-12-25T09:24:55.580Z,100.00
2022-12-25T09:27:25.727Z,100.00
2022-12-25T09:29:54.631Z,98.58
2022-12-25T09:32:23.480Z,98.93
2022-12-25T09:34:52.441Z,95.36
2022-12-25T09:37:21.249Z,96.79
2022-12-25T09:39:50.245Z,95.28
2022-12-25T09:42:23.874Z,96.70
2022-12-25T09:44:59.314Z,100.00
2022-12-25T09:47:32.514Z,97.98
2022-12-25T09:50:05.476Z,98.33
2022-12-25T09:52:42.563Z,96.36
2022-12-25T09:55:19.956Z,90.16
2022-12-25T09:57:53.484Z,93.48
2022-12-25T10:00:25.729Z,94.06
2022-12-25T10:03:14.302Z,94.62
2022-12-25T10:06:00.131Z,95.79
2022-12-25T10:08:43.371Z,92.80
2022-12-25T10:11:25.957Z,90.43
2022-12-25T10:14:11.692Z,92.50
2022-12-25T10:16:50.969Z,89.62
2022-12-25T10:19:36.278Z,92.51
2022-12-25T10:22:12.722Z,88.41
2022-12-25T10:24:46.954Z,88.22
2022-12-25T10:27:20.068Z,86.83
2022-12-25T10:29:54.446Z,80.85
2022-12-25T10:32:24.714Z,83.94
2022-12-25T10:34:53.569Z,87.39
2022-12-25T10:37:22.525Z,81.06
2022-12-25T10:39:51.319Z,83.08
2022-12-25T10:42:32.198Z,78.48
2022-12-25T10:45:03.383Z,79.73
2022-12-25T10:47:38.050Z,74.12
2022-12-25T10:50:11.722Z,74.57
2022-12-25T10:52:56.081Z,73.58
2022-12-25T10:55:29.037Z,80.14
2022-12-25T10:57:59.821Z,76.93
2022-12-25T11:00:30.335Z,70.42
2022-12-25T11:03:01.238Z,65.60
2022-12-25T11:05:32.720Z,64.68
2022-12-25T11:08:04.087Z,58.27
2022-12-25T11:10:37.785Z,50.81
2022-12-25T11:13:08.640Z,53.32
2022-12-25T11:15:40.220Z,61.08
2022-12-25T11:18:22.154Z,66.76
2022-12-25T11:20:52.565Z,60.84
2022-12-25T11:23:23.772Z,55.27
2022-12-25T11:25:56.606Z,54.77
2022-12-25T11:28:27.470Z,51.19
2022-12-25T11:31:02.461Z,61.69
2022-12-25T11:33:37.869Z,54.54
2022-12-25T11:36:17.036Z,53.39
2022-12-25T11:38:46.118Z,54.02
2022-12-25T11:41:20.683Z,52.14
2022-12-25T11:43:54.507Z,53.72
2022-12-25T11:46:28.148Z,54.47
2022-12-25T11:49:04.098Z,52.37
2022-12-25T11:51:37.983Z,52.75
2022-12-25T11:54:18.623Z,52.49
2022-12-25T11:56:47.856Z,51.89
2022-12-25T11:59:22.873Z,51.56
2022-12-25T12:01:56.216Z,50.93
2022-12-25T12:04:35.142Z,50.94
2022-12-25T12:07:17.458Z,51.69
2022-12-25T12:09:53.056Z,50.56
2022-12-25T12:12:28.457Z,51.66
2022-12-25T12:15:02.468Z,53.69
2022-12-25T12:17:31.612Z,52.45
2022-12-25T12:20:12.420Z,47.77
2022-12-25T12:22:51.402Z,48.75
2022-12-25T12:25:21.274Z,50.40
2022-12-25T12:28:01.299Z,49.25
2022-12-25T12:30:36.002Z,49.26
2022-12-25T12:33:08.316Z,50.75
2022-12-25T12:35:41.123Z,49.86
2022-12-25T12:38:16.160Z,49.01
2022-12-25T12:40:53.147Z,48.73
2022-12-25T12:43:31.733Z,47.96
2022-12-25T12:46:05.554Z,47.89
2022-12-25T12:48:40.853Z,48.27
2022-12-25T12:51:11.665Z,47.92
2022-12-25T12:53:41.577Z,48.56
2022-12-25T12:56:16.475Z,46.19
2022-12-25T12:58:50.805Z,45.90
2022-12-25T13:01:45.294Z,45.71
2022-12-25T13:04:49.266Z,45.34
2022-12-25T13:07:34.321Z,42.83
2022-12-25T13:10:14.953Z,40.29
2022-12-25T13:12:43.846Z,39.69
2022-12-25T13:15:14.437Z,40.29
2022-12-25T13:17:46.953Z,40.29
2022-12-25T13:20:23.749Z,40.43
2022-12-25T13:22:54.020Z,39.73
2022-12-25T13:25:25.014Z,39.35
2022-12-25T13:27:57.982Z,43.29
2022-12-25T13:30:27.874Z,42.75
2022-12-25T13:33:00.029Z,43.86
2022-12-25T13:35:30.908Z,42.97
2022-12-25T13:38:02.087Z,45.64
2022-12-25T13:40:30.992Z,41.01
2022-12-25T13:43:02.292Z,40.53
2022-12-25T13:45:34.106Z,41.10
2022-12-25T13:48:15.568Z,42.18
2022-12-25T13:50:48.440Z,41.21
2022-12-25T13:53:19.132Z,41.07
2022-12-25T13:55:52.518Z,42.01
2022-12-25T13:58:26.368Z,42.08
2022-12-25T14:00:57.786Z,43.40
2022-12-25T14:03:32.205Z,45.10
2022-12-25T14:06:04.099Z,45.59
2022-12-25T14:08:36.688Z,44.86
2022-12-25T14:11:08.317Z,43.51
2022-12-25T14:13:41.410Z,44.24
2022-12-25T14:16:11.455Z,43.58
2022-12-25T14:18:50.788Z,42.66
2022-12-25T14:21:26.865Z,43.05
2022-12-25T14:23:57.471Z,44.60
2022-12-25T14:26:28.685Z,45.77
2022-12-25T14:29:12.649Z,46.48
2022-12-25T14:31:47.172Z,47.03
2022-12-25T14:34:19.795Z,47.46
2022-12-25T14:36:50.417Z,47.35
2022-12-25T14:39:34.991Z,47.67
2022-12-25T14:42:13.846Z,48.24
2022-12-25T14:44:42.762Z,48.62
2022-12-25T14:47:18.193Z,49.01
2022-12-25T14:49:47.617Z,50.31
2022-12-25T14:52:20.728Z,49.53
2022-12-25T14:54:54.203Z,50.48
2022-12-25T14:57:28.884Z,49.84
2022-12-25T15:00:05.326Z,49.88
2022-12-25T15:02:46.222Z,49.12
2022-12-25T15:05:31.469Z,48.94
2022-12-25T15:08:22.040Z,50.03
2022-12-25T15:11:02.268Z,50.95
2022-12-25T15:13:32.913Z,50.24
2022-12-25T15:16:06.853Z,50.35
2022-12-25T15:18:39.807Z,50.90
2022-12-25T15:21:15.248Z,50.99
2022-12-25T15:23:44.276Z,50.70
2022-12-25T15:26:15.847Z,50.94
2022-12-25T15:28:44.734Z,51.67
2022-12-25T15:31:22.157Z,53.02
2022-12-25T15:33:51.216Z,57.98
2022-12-25T15:36:20.254Z,54.18
2022-12-25T15:38:49.196Z,52.87
2022-12-25T15:41:35.452Z,53.30
2022-12-25T15:44:06.097Z,53.75
2022-12-25T15:46:35.447Z,57.16
2022-12-25T15:49:04.414Z,59.37
2022-12-25T15:51:33.545Z,59.31
2022-12-25T15:54:02.374Z,59.70
2022-12-25T15:56:41.516Z,58.32
2022-12-25T15:59:10.971Z,59.04
2022-12-25T16:01:40.867Z,58.56
2022-12-25T16:04:09.771Z,57.74
2022-12-25T16:06:38.648Z,58.52
2022-12-25T16:09:07.461Z,59.50
2022-12-25T16:11:37.761Z,60.29
2022-12-25T16:14:06.721Z,63.52
2022-12-25T16:16:35.900Z,62.03
2022-12-25T16:19:05.274Z,65.20
2022-12-25T16:21:40.331Z,61.29
2022-12-25T16:24:09.575Z,62.53
2022-12-25T16:26:39.733Z,61.98
2022-12-25T16:29:08.816Z,62.74
2022-12-25T16:31:38.855Z,62.48
2022-12-25T16:34:09.400Z,62.44
2022-12-25T16:36:39.249Z,62.39
2022-12-25T16:39:08.981Z,62.43
2022-12-25T16:41:39.217Z,62.88
2022-12-25T16:44:10.317Z,64.16
2022-12-25T16:46:41.211Z,64.91
2022-12-25T16:49:10.154Z,66.29
2022-12-25T16:51:39.054Z,67.43
2022-12-25T16:54:07.897Z,66.48
2022-12-25T16:56:36.889Z,67.08
2022-12-25T16:59:07.093Z,66.43
2022-12-25T17:01:36.094Z,66.55
2022-12-25T17:04:05.524Z,67.92
2022-12-25T17:06:34.496Z,66.66
2022-12-25T17:09:05.374Z,67.97
2022-12-25T17:11:34.593Z,68.26
2022-12-25T17:14:07.073Z,70.81
2022-12-25T17:16:37.577Z,70.33
2022-12-25T17:19:09.802Z,71.71
2022-12-25T17:21:38.808Z,70.67
2022-12-25T17:24:08.389Z,71.07
2022-12-25T17:26:37.636Z,70.16
2022-12-25T17:29:07.989Z,70.67
2022-12-25T17:31:38.083Z,70.42
2022-12-25T17:34:08.246Z,70.40
2022-12-25T17:36:37.454Z,73.39
2022-12-25T17:39:07.511Z,72.59
2022-12-25T17:41:36.727Z,71.53
2022-12-25T17:44:07.217Z,70.05
2022-12-25T17:46:36.063Z,70.62
2022-12-25T17:49:04.908Z,71.06
2022-12-25T17:51:33.815Z,70.57
2022-12-25T17:54:04.109Z,71.23
2022-12-25T17:56:34.483Z,70.76
2022-12-25T17:59:06.909Z,70.29
2022-12-25T18:01:38.872Z,67.75
2022-12-25T18:04:08.319Z,68.07
2022-12-25T18:06:37.969Z,69.48
2022-12-25T18:09:08.108Z,72.37
2022-12-25T18:11:40.609Z,70.85
2022-12-25T18:14:12.637Z,69.42
2022-12-25T18:16:44.862Z,68.27
2022-12-25T18:19:18.565Z,69.62
2022-12-25T18:21:47.620Z,69.51
2022-12-25T18:24:16.461Z,70.83
2022-12-25T18:26:45.772Z,67.64
2022-12-25T18:29:14.602Z,68.24
2022-12-25T18:31:45.890Z,69.00
2022-12-25T18:34:14.717Z,68.39
2022-12-25T18:36:44.625Z,70.25
2022-12-25T18:39:14.439Z,69.35
2022-12-25T18:41:57.108Z,69.48
2022-12-25T18:44:25.947Z,68.19
2022-12-25T18:46:56.225Z,68.96
2022-12-25T18:49:25.007Z,69.48
2022-12-25T18:51:54.131Z,65.72
2022-12-25T18:54:42.973Z,64.31
2022-12-25T18:57:11.833Z,64.84
2022-12-25T18:59:41.899Z,63.25
2022-12-25T19:02:13.193Z,64.39
2022-12-25T19:04:43.539Z,64.31
2022-12-25T19:07:13.234Z,65.57
2022-12-25T19:09:42.077Z,67.46
2022-12-25T19:12:10.941Z,69.34
2022-12-25T19:14:48.036Z,68.49
2022-12-25T19:17:18.886Z,68.20
2022-12-25T19:19:48.156Z,67.10
2022-12-25T19:22:17.455Z,67.57
2022-12-25T19:24:46.382Z,68.50
2022-12-25T19:27:15.256Z,64.95
2022-12-25T19:29:44.195Z,63.08
2022-12-25T19:32:13.070Z,61.89
2022-12-25T19:34:43.445Z,61.77
2022-12-25T19:37:12.374Z,64.41
2022-12-25T19:39:46.673Z,68.87
2022-12-25T19:42:17.038Z,70.71
2022-12-25T19:44:45.895Z,69.37
2022-12-25T19:47:14.853Z,68.50
2022-12-25T19:49:47.396Z,69.24
2022-12-25T19:52:19.864Z,70.58
2022-12-25T19:54:52.471Z,70.62
2022-12-25T19:57:21.895Z,72.49
2022-12-25T19:59:50.808Z,68.21
2022-12-25T20:02:19.773Z,70.95
2022-12-25T20:04:50.211Z,74.11
2022-12-25T20:07:19.020Z,76.00
2022-12-25T20:09:47.973Z,76.47
2022-12-25T20:12:16.794Z,76.17
2022-12-25T20:14:45.637Z,74.47
2022-12-25T20:17:16.192Z,74.14
2022-12-25T20:19:45.578Z,73.77
2022-12-25T20:22:15.799Z,73.44
2022-12-25T20:24:44.718Z,72.57
2022-12-25T20:27:13.529Z,73.76
2022-12-25T20:29:42.782Z,73.25
2022-12-25T20:32:11.825Z,71.97
2022-12-25T20:34:40.688Z,71.55
2022-12-25T20:37:09.513Z,72.96
2022-12-25T20:39:41.332Z,74.89
2022-12-25T20:42:10.211Z,77.80
2022-12-25T20:44:39.643Z,82.10
2022-12-25T20:47:08.981Z,80.04
2022-12-25T20:49:37.741Z,80.20
2022-12-25T20:52:06.794Z,78.30
2022-12-25T20:54:35.916Z,78.53
2022-12-25T20:57:06.152Z,80.71
2022-12-25T20:59:37.598Z,85.57
2022-12-25T21:02:07.035Z,87.79
2022-12-25T21:04:36.049Z,91.07
2022-12-25T21:07:05.302Z,92.30
2022-12-25T21:09:34.673Z,91.78
2022-12-25T21:12:05.264Z,87.95
2022-12-25T21:14:34.110Z,85.77
2022-12-25T21:17:04.574Z,84.57
2022-12-25T21:19:33.494Z,84.30
2022-12-25T21:22:02.764Z,85.48
2022-12-25T21:24:32.710Z,86.88
2022-12-25T21:27:02.804Z,87.14
2022-12-25T21:29:32.998Z,85.29
2022-12-25T21:32:19.121Z,84.23
2022-12-25T21:34:47.895Z,85.66
2022-12-25T21:37:16.712Z,89.27
2022-12-25T21:39:45.549Z,89.96
2022-12-25T21:42:15.582Z,93.18
2022-12-25T21:44:45.821Z,95.63
2022-12-25T21:47:14.666Z,97.46
2022-12-25T21:50:01.182Z,93.64
2022-12-25T21:52:30.004Z,90.10
2022-12-25T21:54:58.882Z,92.88
2022-12-25T21:57:27.708Z,100.00
2022-12-25T21:59:58.160Z,100.00
2022-12-25T22:02:27.284Z,78.20
2022-12-25T22:04:57.363Z,85.91
2022-12-25T22:07:25.309Z,83.90
2022-12-25T22:09:54.153Z,93.71
2022-12-25T22:12:40.229Z,96.69
2022-12-25T22:15:11.506Z,84.76
2022-12-25T22:17:59.375Z,96.02
2022-12-25T22:20:30.833Z,91.72
2022-12-25T22:22:59.774Z,77.25
2022-12-25T22:25:28.800Z,84.16
2022-12-25T22:27:58.521Z,88.11
2022-12-25T22:30:30.082Z,75.46
2022-12-25T22:32:59.365Z,77.34
2022-12-25T22:35:28.232Z,75.73
2022-12-25T22:37:57.153Z,75.16
2022-12-25T22:40:25.960Z,73.21
2022-12-25T22:42:55.785Z,67.98
2022-12-25T22:45:25.451Z,70.12
2022-12-25T22:47:55.665Z,73.68
2022-12-25T22:50:24.547Z,76.09
2022-12-25T22:52:54.165Z,81.30
2022-12-25T22:55:23.032Z,81.73
2022-12-25T22:57:52.164Z,83.71
2022-12-25T23:00:21.129Z,82.19
2022-12-25T23:02:50.247Z,85.24
2022-12-25T23:05:20.640Z,86.10
2022-12-25T23:07:49.578Z,89.05
2022-12-25T23:10:18.509Z,90.02
2022-12-25T23:13:04.802Z,85.16
2022-12-25T23:15:33.782Z,82.84
2022-12-25T23:18:21.580Z,85.91
2022-12-25T23:21:09.575Z,90.61
2022-12-25T23:23:55.940Z,92.88
2022-12-25T23:26:24.733Z,90.37
2022-12-25T23:29:10.794Z,87.11
2022-12-25T23:31:42.480Z,86.69
2022-12-25T23:34:11.948Z,86.36
2022-12-25T23:36:42.164Z,85.60
2022-12-25T23:39:11.142Z,87.38
2022-12-25T23:41:40.559Z,86.69
2022-12-25T23:44:10.563Z,87.24
2022-12-25T23:46:40.010Z,87.53
2022-12-25T23:49:09.675Z,85.57
2022-12-25T23:51:39.279Z,85.56
2022-12-25T23:54:10.960Z,85.15
2022-12-25T23:56:39.979Z,84.16
2022-12-25T23:59:09.397Z,82.41
